Time;durP1;ratioP1;P1;durP2;ratioP2;P2;SDS_P1;SDS_P2;PMS_P1;PMS_P2;Temp;Humidity;BMP_temperature;BMP_pressure;BME280_temperature;BME280_humidity;BME280_pressure;Samples;Min_cycle;Max_cycle;Signal;HPM_P1;HPM_P2
2021/06/16 00:00:11;;;;;;;28.08;6.53;;;;;11.60;101445.00;;;;5009060;28;20472;-73
2021/06/16 00:02:38;;;;;;;23.08;6.07;;;;;11.60;101444.00;;;;5008603;28;20583;-72
2021/06/16 00:05:07;;;;;;;26.83;5.88;;;;;11.60;101453.00;;;;5009116;28;20034;-71
2021/06/16 00:07:34;;;;;;;20.85;5.40;;;;;11.60;101445.00;;;;5009117;28;20038;-71
2021/06/16 00:10:00;;;;;;;18.67;5.20;;;;;11.60;101467.00;;;;5009323;28;20026;-71
2021/06/16 00:12:27;;;;;;;19.95;4.90;;;;;11.60;101472.00;;;;5008794;28;20044;-71
2021/06/16 00:14:54;;;;;;;30.63;6.38;;;;;11.60;101470.00;;;;5010376;28;20029;-72
2021/06/16 00:17:21;;;;;;;19.80;4.78;;;;;11.70;101439.00;;;;5011787;28;20036;-72
2021/06/16 00:19:48;;;;;;;24.17;5.50;;;;;11.60;101461.00;;;;5010219;28;20072;-72
2021/06/16 00:22:14;;;;;;;23.70;5.00;;;;;11.60;101466.00;;;;5008391;28;20026;-72
2021/06/16 00:24:41;;;;;;;21.90;5.28;;;;;11.60;101466.00;;;;5009095;28;20034;-72
2021/06/16 00:27:08;;;;;;;14.05;4.43;;;;;11.60;101466.00;;;;5008615;28;20366;-72
2021/06/16 00:29:34;;;;;;;27.05;5.15;;;;;11.50;101456.00;;;;4995711;28;20104;-72
2021/06/16 00:32:01;;;;;;;18.00;4.97;;;;;11.50;101469.00;;;;4989089;28;20109;-72
2021/06/16 00:34:28;;;;;;;22.95;5.15;;;;;11.50;101460.00;;;;4988703;28;20034;-72
2021/06/16 00:36:54;;;;;;;24.20;5.90;;;;;11.50;101467.00;;;;4989017;28;20110;-72
2021/06/16 00:39:21;;;;;;;22.45;5.22;;;;;11.50;101471.00;;;;4989239;28;20485;-72
2021/06/16 00:41:47;;;;;;;21.80;4.72;;;;;11.50;101450.00;;;;4988841;28;20034;-72
2021/06/16 00:44:14;;;;;;;24.35;5.45;;;;;11.50;101468.00;;;;4988159;28;20069;-72
2021/06/16 00:46:40;;;;;;;16.63;4.10;;;;;11.50;101459.00;;;;4988329;28;20060;-73
2021/06/16 00:49:07;;;;;;;19.48;4.20;;;;;11.40;101464.00;;;;4988634;28;20080;-74
2021/06/16 00:51:34;;;;;;;25.65;4.72;;;;;11.40;101451.00;;;;4988643;28;20034;-71
2021/06/16 00:54:00;;;;;;;14.48;3.83;;;;;11.40;101455.00;;;;4988366;28;20037;-71
2021/06/16 00:56:27;;;;;;;22.52;4.57;;;;;11.40;101443.00;;;;4988097;28;20469;-72
2021/06/16 00:58:53;;;;;;;21.00;4.07;;;;;11.40;101445.00;;;;5003182;28;20471;-73
2021/06/16 01:01:26;;;;;;;16.95;3.60;;;;;11.40;101460.00;;;;4988266;28;20048;-73
2021/06/16 01:04:11;;;;;;;14.73;3.53;;;;;11.50;101464.00;;;;4988631;28;20031;-72
2021/06/16 01:06:44;;;;;;;22.42;3.70;;;;;11.40;101468.00;;;;4988632;28;20030;-71
2021/06/16 01:09:32;;;;;;;19.15;3.30;;;;;11.40;101461.00;;;;4987804;28;20030;-71
2021/06/16 01:12:11;;;;;;;23.60;3.75;;;;;11.40;101476.00;;;;4988217;28;20030;-71
2021/06/16 01:15:02;;;;;;;17.60;3.58;;;;;11.30;101464.00;;;;4987812;28;20030;-71
2021/06/16 01:17:46;;;;;;;17.58;3.60;;;;;11.30;101464.00;;;;4987123;28;20038;-72
2021/06/16 01:20:34;;;;;;;23.80;4.07;;;;;11.30;101477.00;;;;4987625;28;20033;-72
2021/06/16 01:23:09;;;;;;;13.25;3.03;;;;;11.30;101468.00;;;;4987545;28;20018;-72
2021/06/16 01:26:00;;;;;;;23.20;3.90;;;;;11.40;101482.00;;;;4987200;28;20061;-72
2021/06/16 01:28:31;;;;;;;13.05;3.83;;;;;11.40;101484.00;;;;4987914;28;20488;-72
2021/06/16 01:30:58;;;;;;;29.58;3.58;;;;;11.40;101474.00;;;;4987885;28;20142;-73
2021/06/16 01:33:24;;;;;;;15.13;3.13;;;;;11.40;101471.00;;;;4987860;28;20038;-73
2021/06/16 01:35:55;;;;;;;16.92;3.33;;;;;11.50;101457.00;;;;4987966;28;20026;-72
2021/06/16 01:38:25;;;;;;;18.65;3.25;;;;;11.40;101474.00;;;;4987954;28;20118;-71
2021/06/16 01:40:57;;;;;;;17.05;3.40;;;;;11.30;101466.00;;;;4988062;28;20074;-71
2021/06/16 01:43:24;;;;;;;22.05;3.20;;;;;11.30;101459.00;;;;4987945;28;20030;-72
2021/06/16 01:45:52;;;;;;;20.00;3.75;;;;;11.30;101473.00;;;;4987475;28;20081;-72
2021/06/16 01:48:20;;;;;;;17.08;3.17;;;;;11.30;101473.00;;;;4987405;28;20061;-73
2021/06/16 01:50:50;;;;;;;14.30;2.75;;;;;11.30;101470.00;;;;4987155;28;20227;-71
2021/06/16 01:53:18;;;;;;;15.60;2.35;;;;;11.20;101472.00;;;;4987324;28;20481;-73
2021/06/16 01:55:47;;;;;;;19.45;3.08;;;;;11.30;101471.00;;;;4987468;28;20026;-72
2021/06/16 01:58:15;;;;;;;13.43;2.53;;;;;11.30;101474.00;;;;4988086;28;20390;-72
2021/06/16 02:00:41;;;;;;;17.98;3.08;;;;;11.20;101462.00;;;;4987108;28;20367;-72
2021/06/16 02:03:08;;;;;;;21.35;2.97;;;;;11.20;101466.00;;;;4987973;28;20066;-73
2021/06/16 02:05:36;;;;;;;14.43;2.03;;;;;11.20;101478.00;;;;4987164;28;20046;-71
2021/06/16 02:08:11;;;;;;;18.23;2.20;;;;;11.10;101472.00;;;;4987739;28;20062;-72
2021/06/16 02:10:42;;;;;;;12.10;2.40;;;;;11.10;101471.00;;;;4987415;28;20041;-72
2021/06/16 02:13:10;;;;;;;21.70;2.53;;;;;11.00;101478.00;;;;4987805;28;20083;-71
2021/06/16 02:15:47;;;;;;;18.85;2.35;;;;;10.90;101464.00;;;;4987417;28;20035;-72
2021/06/16 02:18:16;;;;;;;14.80;2.40;;;;;10.80;101478.00;;;;4987335;28;20533;-71
2021/06/16 02:20:44;;;;;;;23.85;2.92;;;;;10.80;101468.00;;;;4987223;28;20026;-73
2021/06/16 02:23:12;;;;;;;12.70;2.42;;;;;10.70;101486.00;;;;4987737;28;20117;-72
2021/06/16 02:25:39;;;;;;;11.93;1.90;;;;;10.70;101478.00;;;;4987637;28;20504;-73
2021/06/16 02:28:06;;;;;;;16.85;2.75;;;;;10.80;101466.00;;;;5002251;28;20062;-72
2021/06/16 02:30:32;;;;;;;15.70;2.45;;;;;10.60;101473.00;;;;4987291;28;20541;-73
2021/06/16 02:32:59;;;;;;;11.90;3.00;;;;;10.60;101475.00;;;;4987375;28;20498;-72
2021/06/16 02:35:26;;;;;;;12.45;2.63;;;;;10.60;101494.00;;;;4987118;28;20042;-72
2021/06/16 02:38:00;;;;;;;10.13;2.03;;;;;10.60;101497.00;;;;4986894;28;20038;-72
2021/06/16 02:40:27;;;;;;;20.30;2.88;;;;;10.50;101497.00;;;;4987339;28;20034;-72
2021/06/16 02:42:55;;;;;;;15.18;1.92;;;;;10.50;101488.00;;;;4987479;28;20042;-73
2021/06/16 02:45:23;;;;;;;13.95;2.30;;;;;10.40;101484.00;;;;4987539;28;20034;-72
2021/06/16 02:47:53;;;;;;;10.02;2.10;;;;;10.40;101495.00;;;;4987062;28;20386;-72
2021/06/16 02:50:28;;;;;;;16.13;2.30;;;;;10.50;101492.00;;;;4987636;28;20038;-72
2021/06/16 02:52:58;;;;;;;9.93;2.13;;;;;10.60;101476.00;;;;4987067;28;20497;-73
2021/06/16 02:55:26;;;;;;;10.98;1.95;;;;;10.60;101484.00;;;;4987531;28;20034;-73
2021/06/16 02:57:54;;;;;;;14.60;2.58;;;;;10.60;101494.00;;;;4986966;28;20113;-73
2021/06/16 03:00:22;;;;;;;13.23;1.90;;;;;10.50;101487.00;;;;4987233;28;20474;-72
2021/06/16 03:02:50;;;;;;;13.50;2.33;;;;;10.50;101478.00;;;;4987368;28;20080;-73
2021/06/16 03:05:21;;;;;;;13.75;2.67;;;;;10.70;101491.00;;;;4986925;28;20084;-72
2021/06/16 03:07:48;;;;;;;;;;;;;10.70;101491.00;;;;4987255;28;20070;-73
2021/06/16 03:10:20;;;;;;;14.23;2.13;;;;;10.60;101485.00;;;;4986828;28;19924;-72
2021/06/16 03:12:52;;;;;;;6.35;2.05;;;;;10.60;101492.00;;;;4987455;28;20033;-73
2021/06/16 03:15:20;;;;;;;8.70;2.17;;;;;10.50;101489.00;;;;4990923;28;20026;-72
2021/06/16 03:17:47;;;;;;;8.45;1.90;;;;;10.40;101489.00;;;;4990836;28;20030;-72
2021/06/16 03:20:18;;;;;;;11.82;1.88;;;;;10.50;101485.00;;;;4990354;28;20022;-72
2021/06/16 03:22:45;;;;;;;9.25;1.80;;;;;10.60;101487.00;;;;4989830;28;20034;-72
2021/06/16 03:25:13;;;;;;;9.77;1.90;;;;;10.70;101494.00;;;;4990336;28;20038;-72
2021/06/16 03:27:40;;;;;;;11.93;2.10;;;;;10.50;101474.00;;;;4989881;28;20044;-73
2021/06/16 03:30:08;;;;;;;10.30;1.90;;;;;10.50;101482.00;;;;4990225;28;20117;-73
2021/06/16 03:32:37;;;;;;;8.10;1.65;;;;;10.40;101498.00;;;;4990338;28;20038;-72
2021/06/16 03:35:06;;;;;;;8.70;1.88;;;;;10.30;101489.00;;;;4989639;28;20038;-73
2021/06/16 03:37:33;;;;;;;9.52;2.05;;;;;10.10;101477.00;;;;5005431;28;20030;-72
2021/06/16 03:40:01;;;;;;;15.35;2.20;;;;;10.10;101482.00;;;;4990341;28;20034;-72
2021/06/16 03:42:27;;;;;;;12.93;2.72;;;;;10.10;101490.00;;;;4990328;28;20026;-72
2021/06/16 03:44:56;;;;;;;11.43;1.77;;;;;10.10;101487.00;;;;4989295;28;20453;-73
2021/06/16 03:47:28;;;;;;;6.30;1.58;;;;;10.20;101483.00;;;;4989947;28;20345;-73
2021/06/16 03:49:56;;;;;;;11.35;2.00;;;;;10.30;101463.00;;;;4990073;28;20029;-73
2021/06/16 03:52:24;;;;;;;4.65;1.38;;;;;10.20;101468.00;;;;4990304;28;20393;-73
2021/06/16 03:54:53;;;;;;;11.27;1.85;;;;;10.10;101485.00;;;;4990087;28;20066;-73
2021/06/16 03:57:21;;;;;;;7.57;1.40;;;;;10.20;101479.00;;;;4989577;28;20101;-73
2021/06/16 03:59:52;;;;;;;8.50;1.77;;;;;10.20;101475.00;;;;4989508;28;20030;-73
2021/06/16 04:02:19;;;;;;;14.32;2.08;;;;;10.10;101475.00;;;;4989327;28;20057;-73
2021/06/16 04:04:46;;;;;;;9.48;1.45;;;;;10.00;101458.00;;;;4989411;28;20033;-72
2021/06/16 04:07:20;;;;;;;15.38;1.90;;;;;10.10;101474.00;;;;4989992;28;20077;-73
2021/06/16 04:09:53;;;;;;;7.97;1.35;;;;;10.10;101464.00;;;;4989728;28;20490;-73
2021/06/16 04:12:20;;;;;;;9.15;2.00;;;;;10.10;101469.00;;;;4989305;28;20590;-73
2021/06/16 04:14:48;;;;;;;8.32;1.30;;;;;10.20;101488.00;;;;4989524;28;20113;-73
2021/06/16 04:17:22;;;;;;;7.55;1.40;;;;;10.00;101475.00;;;;4989290;28;20023;-73
2021/06/16 04:19:50;;;;;;;6.85;1.35;;;;;10.00;101489.00;;;;4989479;28;20026;-72
2021/06/16 04:22:18;;;;;;;9.40;1.60;;;;;9.90;101482.00;;;;4989477;28;20167;-72
2021/06/16 04:24:45;;;;;;;18.42;1.65;;;;;9.80;101487.00;;;;4988393;28;20053;-73
2021/06/16 04:27:12;;;;;;;7.78;1.23;;;;;9.90;101490.00;;;;4988842;28;20039;-72
2021/06/16 04:29:41;;;;;;;7.43;1.10;;;;;10.10;101503.00;;;;4988621;28;20445;-73
2021/06/16 04:32:10;;;;;;;10.85;1.75;;;;;10.10;101491.00;;;;4989161;28;20048;-72
2021/06/16 04:34:37;;;;;;;14.55;1.40;;;;;10.00;101477.00;;;;4988980;28;20081;-72
2021/06/16 04:37:05;;;;;;;9.88;1.80;;;;;10.00;101497.00;;;;4988346;28;20026;-72
2021/06/16 04:39:32;;;;;;;11.13;1.40;;;;;9.90;101508.00;;;;4988585;28;20034;-72
2021/06/16 04:41:59;;;;;;;8.48;1.25;;;;;9.80;101484.00;;;;4988467;28;20037;-72
2021/06/16 04:44:25;;;;;;;6.32;1.10;;;;;9.70;101480.00;;;;4988591;28;20112;-72
2021/06/16 04:46:52;;;;;;;8.25;1.35;;;;;9.70;101491.00;;;;4988698;28;20030;-72
2021/06/16 04:49:18;;;;;;;13.20;2.10;;;;;9.70;101493.00;;;;4988316;28;20030;-72
2021/06/16 04:51:45;;;;;;;5.75;1.25;;;;;9.70;101502.00;;;;4988733;28;20120;-71
2021/06/16 04:54:11;;;;;;;12.23;1.00;;;;;9.70;101477.00;;;;4988757;28;20026;-73
2021/06/16 04:56:40;;;;;;;7.93;1.52;;;;;9.60;101489.00;;;;4988666;28;20034;-72
2021/06/16 04:59:06;;;;;;;5.45;1.00;;;;;9.50;101492.00;;;;4988927;28;20498;-72
2021/06/16 05:01:35;;;;;;;6.82;1.20;;;;;9.50;101508.00;;;;4988349;28;20537;-72
2021/06/16 05:04:03;;;;;;;7.97;1.20;;;;;9.40;101494.00;;;;4988338;28;20484;-72
2021/06/16 05:06:30;;;;;;;15.95;1.95;;;;;9.40;101494.00;;;;4988200;28;20038;-72
2021/06/16 05:08:56;;;;;;;4.25;1.10;;;;;9.30;101502.00;;;;5002766;28;20045;-72
2021/06/16 05:11:23;;;;;;;5.95;1.02;;;;;9.30;101496.00;;;;4988261;28;20109;-71
2021/06/16 05:13:49;;;;;;;8.95;1.02;;;;;9.30;101501.00;;;;4988059;28;20041;-72
2021/06/16 05:16:16;;;;;;;7.88;1.17;;;;;9.30;101498.00;;;;4987978;28;20026;-72
2021/06/16 05:18:45;;;;;;;7.10;1.08;;;;;9.40;101498.00;;;;4988378;28;20400;-72
2021/06/16 05:21:12;;;;;;;6.65;1.20;;;;;9.30;101496.00;;;;4988199;28;20084;-72
2021/06/16 05:23:39;;;;;;;7.20;0.90;;;;;9.30;101491.00;;;;4988686;28;20023;-72
2021/06/16 05:26:06;;;;;;;8.85;1.35;;;;;9.40;101478.00;;;;4988234;28;20030;-73
2021/06/16 05:28:32;;;;;;;4.50;0.85;;;;;9.30;101475.00;;;;4988201;28;20034;-72
2021/06/16 05:30:59;;;;;;;7.35;1.38;;;;;9.30;101475.00;;;;4987934;28;20069;-72
2021/06/16 05:33:25;;;;;;;10.10;1.10;;;;;9.30;101482.00;;;;4987680;28;20538;-72
2021/06/16 05:35:52;;;;;;;10.35;1.20;;;;;9.30;101491.00;;;;4987228;28;20084;-71
2021/06/16 05:38:19;;;;;;;11.75;1.50;;;;;9.30;101484.00;;;;4987457;28;20033;-72
2021/06/16 05:40:46;;;;;;;6.95;1.00;;;;;9.30;101474.00;;;;4987924;28;20026;-72
2021/06/16 05:43:12;;;;;;;5.15;0.90;;;;;9.30;101463.00;;;;4987796;28;20440;-72
2021/06/16 05:45:39;;;;;;;13.45;1.23;;;;;9.20;101475.00;;;;5003009;28;20045;-71
2021/06/16 05:48:05;;;;;;;5.43;1.00;;;;;9.30;101476.00;;;;4987546;28;20520;-73
2021/06/16 05:50:32;;;;;;;3.83;1.02;;;;;9.20;101494.00;;;;4987989;28;20022;-71
2021/06/16 05:52:59;;;;;;;6.18;1.20;;;;;9.20;101477.00;;;;4987620;28;20041;-72
2021/06/16 05:55:25;;;;;;;5.72;1.17;;;;;9.20;101488.00;;;;4987854;28;20532;-72
2021/06/16 05:57:52;;;;;;;6.18;1.10;;;;;9.20;101501.00;;;;4987805;28;20022;-72
2021/06/16 06:00:20;;;;;;;7.57;1.08;;;;;9.20;101489.00;;;;4990529;28;20034;-72
2021/06/16 06:02:47;;;;;;;9.15;1.30;;;;;9.20;101494.00;;;;4990166;28;20030;-71
2021/06/16 06:05:13;;;;;;;8.40;1.30;;;;;9.20;101470.00;;;;4988067;28;20034;-72
2021/06/16 06:07:40;;;;;;;5.90;1.02;;;;;9.20;101494.00;;;;4987779;28;20501;-72
2021/06/16 06:10:07;;;;;;;11.15;1.30;;;;;9.20;101494.00;;;;4987252;28;20416;-72
2021/06/16 06:12:34;;;;;;;10.93;1.25;;;;;9.20;101482.00;;;;4987733;28;20038;-72
2021/06/16 06:15:00;;;;;;;8.02;1.15;;;;;9.10;101499.00;;;;4987874;28;20031;-73
2021/06/16 06:17:27;;;;;;;10.25;1.00;;;;;9.10;101486.00;;;;4987368;28;20022;-72
2021/06/16 06:19:53;;;;;;;8.48;1.27;;;;;9.10;101486.00;;;;4987332;28;20042;-72
2021/06/16 06:22:20;;;;;;;7.68;1.20;;;;;9.10;101494.00;;;;4987137;28;20034;-72
2021/06/16 06:24:47;;;;;;;6.93;1.05;;;;;9.10;101503.00;;;;4987174;28;20085;-72
2021/06/16 06:27:13;;;;;;;6.55;1.38;;;;;9.10;101494.00;;;;4987276;28;20402;-72
2021/06/16 06:29:40;;;;;;;10.43;1.35;;;;;9.10;101485.00;;;;4987230;28;20537;-72
2021/06/16 06:32:07;;;;;;;7.38;1.42;;;;;9.10;101512.00;;;;4987167;28;20031;-72
2021/06/16 06:34:33;;;;;;;11.55;1.40;;;;;9.10;101484.00;;;;4986798;28;20486;-72
2021/06/16 06:37:00;;;;;;;8.95;1.02;;;;;9.10;101488.00;;;;4987806;28;20062;-72
2021/06/16 06:39:28;;;;;;;6.15;1.23;;;;;9.20;101493.00;;;;4987466;28;20033;-71
2021/06/16 06:41:55;;;;;;;11.20;1.70;;;;;9.20;101478.00;;;;4988146;28;20058;-72
2021/06/16 06:44:22;;;;;;;5.38;1.13;;;;;9.20;101487.00;;;;4986668;28;20030;-72
2021/06/16 06:46:48;;;;;;;5.93;1.02;;;;;9.20;101502.00;;;;4986774;28;20034;-72
2021/06/16 06:49:15;;;;;;;6.57;1.40;;;;;9.20;101507.00;;;;4990921;28;20474;-71
2021/06/16 06:51:41;;;;;;;8.95;1.70;;;;;9.20;101492.00;;;;4991012;28;20037;-72
2021/06/16 06:54:08;;;;;;;5.30;1.05;;;;;9.20;101494.00;;;;4990416;28;20498;-73
2021/06/16 06:56:39;;;;;;;11.68;1.40;;;;;9.20;101498.00;;;;4990903;28;20030;-72
2021/06/16 06:59:06;;;;;;;10.07;1.73;;;;;9.20;101502.00;;;;4990502;28;20421;-72
2021/06/16 07:01:32;;;;;;;4.80;1.30;;;;;9.20;101483.00;;;;4990193;28;20963;-72
2021/06/16 07:04:01;;;;;;;10.93;1.42;;;;;9.20;101493.00;;;;4990744;28;20030;-72
2021/06/16 07:06:32;;;;;;;6.25;1.65;;;;;9.20;101496.00;;;;4990848;28;20473;-72
2021/06/16 07:08:59;;;;;;;12.17;1.70;;;;;9.20;101488.00;;;;4991230;28;20069;-72
2021/06/16 07:11:25;;;;;;;9.00;2.05;;;;;9.30;101494.00;;;;4990027;28;20424;-72
2021/06/16 07:13:52;;;;;;;11.13;2.67;;;;;9.30;101492.00;;;;4990019;28;20112;-72
2021/06/16 07:16:19;;;;;;;12.70;2.33;;;;;9.30;101492.00;;;;4990426;28;20525;-71
2021/06/16 07:18:46;;;;;;;10.27;2.42;;;;;9.20;101499.00;;;;4990369;28;20026;-71
2021/06/16 07:21:13;;;;;;;8.70;2.17;;;;;9.20;101493.00;;;;4990703;28;20034;-71
2021/06/16 07:23:39;;;;;;;10.43;2.35;;;;;9.20;101501.00;;;;4990615;28;20034;-71
2021/06/16 07:26:06;;;;;;;13.75;2.90;;;;;9.20;101487.00;;;;4990192;28;20065;-72
2021/06/16 07:28:32;;;;;;;14.18;3.90;;;;;9.20;101499.00;;;;4990068;28;20061;-73
2021/06/16 07:30:59;;;;;;;9.85;2.85;;;;;9.20;101509.00;;;;4990472;28;20053;-70
2021/06/16 07:33:25;;;;;;;11.15;2.80;;;;;9.20;101496.00;;;;4989893;28;20169;-72
2021/06/16 07:35:52;;;;;;;9.98;2.72;;;;;9.20;101494.00;;;;4989896;28;20058;-71
2021/06/16 07:38:19;;;;;;;8.88;2.15;;;;;9.20;101481.00;;;;4990023;28;20030;-73
2021/06/16 07:40:45;;;;;;;10.20;2.80;;;;;9.20;101481.00;;;;4989799;28;20539;-72
2021/06/16 07:43:12;;;;;;;8.25;2.47;;;;;9.20;101492.00;;;;4989857;28;20034;-72
2021/06/16 07:45:38;;;;;;;13.20;2.67;;;;;9.20;101501.00;;;;4990009;28;20505;-71
2021/06/16 07:48:05;;;;;;;11.38;2.70;;;;;9.10;101495.00;;;;4989663;28;20034;-72
2021/06/16 07:50:32;;;;;;;14.25;2.42;;;;;9.10;101501.00;;;;4989578;28;20485;-71
2021/06/16 07:52:59;;;;;;;11.68;2.30;;;;;9.10;101510.00;;;;4989649;28;20378;-71
2021/06/16 07:55:26;;;;;;;13.25;2.40;;;;;9.00;101497.00;;;;4989528;28;20828;-72
2021/06/16 07:57:53;;;;;;;18.63;2.70;;;;;9.00;101505.00;;;;4989977;28;20022;-71
2021/06/16 08:00:19;;;;;;;10.82;2.70;;;;;9.10;101495.00;;;;4988777;28;20081;-72
2021/06/16 08:02:46;;;;;;;9.95;2.03;;;;;9.00;101495.00;;;;4989482;28;20030;-72
2021/06/16 08:05:14;;;;;;;9.93;2.30;;;;;9.00;101471.00;;;;4989311;28;20149;-72
2021/06/16 08:07:41;;;;;;;10.88;2.65;;;;;9.00;101497.00;;;;4989342;28;20493;-72
2021/06/16 08:10:08;;;;;;;9.23;2.33;;;;;9.10;101486.00;;;;4989101;28;20134;-72
2021/06/16 08:12:34;;;;;;;10.93;2.35;;;;;9.00;101470.00;;;;4989738;28;20113;-72
2021/06/16 08:15:02;;;;;;;11.60;3.03;;;;;9.10;101455.00;;;;4989680;28;20027;-72
2021/06/16 08:17:29;;;;;;;9.32;2.40;;;;;9.10;101490.00;;;;4989594;28;20034;-72
2021/06/16 08:19:56;;;;;;;9.82;2.20;;;;;9.10;101464.00;;;;5004339;28;20387;-72
2021/06/16 08:22:22;;;;;;;10.10;2.15;;;;;9.10;101463.00;;;;4989082;28;20099;-73
2021/06/16 08:24:49;;;;;;;8.77;2.42;;;;;9.00;101478.00;;;;4989195;28;20076;-72
2021/06/16 08:27:16;;;;;;;7.97;1.95;;;;;9.10;101471.00;;;;4989406;28;20031;-72
2021/06/16 08:29:42;;;;;;;6.03;2.03;;;;;9.00;101458.00;;;;4988584;28;20100;-73
2021/06/16 08:32:09;;;;;;;9.23;2.15;;;;;9.00;101469.00;;;;4988560;28;20089;-73
2021/06/16 08:34:36;;;;;;;7.20;1.63;;;;;9.00;101466.00;;;;4988843;28;20588;-73
2021/06/16 08:37:04;;;;;;;10.38;1.90;;;;;9.00;101489.00;;;;4988450;28;21138;-72
2021/06/16 08:39:31;;;;;;;7.40;2.00;;;;;9.00;101473.00;;;;4988886;28;20042;-73
2021/06/16 08:41:58;;;;;;;7.63;2.40;;;;;9.00;101473.00;;;;4988706;28;20030;-72
2021/06/16 08:44:25;;;;;;;12.50;2.60;;;;;9.00;101478.00;;;;4989341;28;20072;-72
2021/06/16 08:46:51;;;;;;;13.20;2.78;;;;;8.90;101478.00;;;;4987968;28;20640;-72
2021/06/16 08:49:18;;;;;;;12.10;2.78;;;;;8.90;101489.00;;;;4988943;28;20141;-72
2021/06/16 08:51:44;;;;;;;13.75;3.00;;;;;8.90;101475.00;;;;4988640;28;20122;-73
2021/06/16 08:54:11;;;;;;;8.85;2.30;;;;;8.90;101470.00;;;;4989087;28;20926;-72
2021/06/16 08:56:38;;;;;;;10.00;2.70;;;;;8.80;101481.00;;;;4988851;28;20421;-72
2021/06/16 08:59:05;;;;;;;10.70;2.67;;;;;8.90;101480.00;;;;4988216;28;20034;-73
2021/06/16 09:01:31;;;;;;;11.38;3.15;;;;;8.90;101474.00;;;;4988576;28;20034;-73
2021/06/16 09:03:58;;;;;;;8.68;2.90;;;;;8.90;101482.00;;;;4988455;28;20061;-71
2021/06/16 09:06:30;;;;;;;19.65;3.50;;;;;8.90;101487.00;;;;4988061;28;20103;-72
2021/06/16 09:09:01;;;;;;;16.10;3.13;;;;;9.00;101498.00;;;;4988061;28;20053;-71
2021/06/16 09:11:44;;;;;;;18.42;3.88;;;;;9.00;101483.00;;;;4988637;28;20096;-72
2021/06/16 09:14:19;;;;;;;11.07;2.88;;;;;9.00;101495.00;;;;4988775;28;20070;-72
2021/06/16 09:16:47;;;;;;;13.57;2.85;;;;;9.00;101478.00;;;;4988296;28;20040;-72
2021/06/16 09:19:33;;;;;;;12.25;2.97;;;;;9.00;101493.00;;;;4988406;28;20053;-73
2021/06/16 09:22:07;;;;;;;21.65;3.67;;;;;9.00;101482.00;;;;4988029;28;20030;-72
2021/06/16 09:24:53;;;;;;;12.45;3.55;;;;;9.10;101505.00;;;;4988149;28;20057;-72
2021/06/16 09:27:43;;;;;;;15.15;3.30;;;;;9.00;101496.00;;;;4987930;28;20409;-72
2021/06/16 09:30:19;;;;;;;12.85;2.97;;;;;9.00;101506.00;;;;4987739;28;20054;-72
2021/06/16 09:32:47;;;;;;;11.90;2.95;;;;;9.10;101521.00;;;;4988228;28;20034;-72
2021/06/16 09:35:22;;;;;;;15.07;3.00;;;;;9.10;101486.00;;;;4988118;28;20030;-72
2021/06/16 09:37:49;;;;;;;11.38;2.80;;;;;9.10;101503.00;;;;4986709;28;20084;-72
2021/06/16 09:40:25;;;;;;;6.65;2.58;;;;;9.10;101509.00;;;;4987248;28;20111;-73
2021/06/16 09:43:13;;;;;;;11.68;2.38;;;;;9.00;101506.00;;;;4987208;28;20030;-72
2021/06/16 09:45:43;;;;;;;10.23;3.20;;;;;9.00;101503.00;;;;4986774;28;20053;-72
2021/06/16 09:48:24;;;;;;;9.75;2.95;;;;;9.00;101507.00;;;;4986537;28;20038;-72
2021/06/16 09:50:52;;;;;;;;;;;;;9.00;101522.00;;;;4987468;28;20085;-72
2021/06/16 09:53:19;;;;;;;8.45;2.60;;;;;9.00;101525.00;;;;4987355;28;19917;-72
2021/06/16 09:55:46;;;;;;;14.50;3.35;;;;;9.00;101502.00;;;;4987043;28;20047;-72
2021/06/16 09:58:19;;;;;;;15.23;3.78;;;;;8.90;101505.00;;;;4987358;28;20030;-73
2021/06/16 10:00:49;;;;;;;13.70;4.03;;;;;8.80;101516.00;;;;4986360;28;20469;-72
2021/06/16 10:03:19;;;;;;;13.70;3.47;;;;;8.60;101523.00;;;;4987931;28;20034;-72
2021/06/16 10:06:13;;;;;;;12.13;3.50;;;;;8.40;101528.00;;;;4987451;28;20030;-72
2021/06/16 10:08:48;;;;;;;18.33;4.05;;;;;8.30;101543.00;;;;4987545;28;20117;-72
2021/06/16 10:11:24;;;;;;;9.73;3.60;;;;;8.10;101526.00;;;;4987074;28;20042;-72
2021/06/16 10:13:51;;;;;;;13.68;3.85;;;;;7.90;101519.00;;;;4988031;28;20504;-72
2021/06/16 10:16:18;;;;;;;15.68;4.15;;;;;7.80;101519.00;;;;4987274;28;20460;-72
2021/06/16 10:18:44;;;;;;;15.50;4.15;;;;;7.70;101533.00;;;;4987374;28;20026;-73
2021/06/16 10:21:13;;;;;;;15.10;3.47;;;;;7.60;101538.00;;;;4987264;28;20034;-72
2021/06/16 10:23:41;;;;;;;12.30;4.32;;;;;7.60;101548.00;;;;4990713;28;20026;-71
2021/06/16 10:26:24;;;;;;;12.45;3.92;;;;;7.40;101523.00;;;;4991978;28;20053;-71
2021/06/16 10:28:57;;;;;;;12.48;3.85;;;;;7.40;101534.00;;;;4990381;28;20559;-72
2021/06/16 10:31:33;;;;;;;14.25;4.50;;;;;7.40;101530.00;;;;4991636;28;20050;-71
2021/06/16 10:33:59;;;;;;;16.55;4.47;;;;;7.30;101542.00;;;;4991137;28;20031;-73
2021/06/16 10:36:26;;;;;;;13.63;4.10;;;;;7.20;101547.00;;;;5005424;28;20034;-72
2021/06/16 10:38:59;;;;;;;12.00;4.15;;;;;7.20;101553.00;;;;4990924;28;20061;-73
2021/06/16 10:41:41;;;;;;;8.52;3.55;;;;;7.30;101555.00;;;;4990836;28;20413;-73
2021/06/16 10:44:10;;;;;;;;;;;;;7.50;101539.00;;;;4991692;28;20486;-72
2021/06/16 10:46:55;;;;;;;9.95;3.47;;;;;7.70;101540.00;;;;4991027;28;19921;-72
2021/06/16 10:49:46;;;;;;;20.48;4.85;;;;;8.00;101537.00;;;;4990629;28;20080;-72
2021/06/16 10:52:15;;;;;;;14.73;3.65;;;;;8.40;101530.00;;;;4990785;28;20030;-73
2021/06/16 10:55:07;;;;;;;11.63;3.33;;;;;9.60;101507.00;;;;4990681;28;20034;-72
2021/06/16 10:57:34;;;;;;;9.00;3.45;;;;;10.20;101485.00;;;;4989272;28;20172;-73
2021/06/16 11:00:02;;;;;;;11.25;2.83;;;;;9.90;101497.00;;;;4990992;28;20482;-73
2021/06/16 11:02:32;;;;;;;14.05;2.78;;;;;9.60;101523.00;;;;4990652;28;20169;-73
2021/06/16 11:05:17;;;;;;;8.85;2.58;;;;;10.80;101483.00;;;;4990688;28;20034;-73
2021/06/16 11:07:43;;;;;;;6.82;2.53;;;;;10.50;101503.00;;;;4990650;28;20034;-74
2021/06/16 11:10:10;;;;;;;9.85;3.05;;;;;10.70;101495.00;;;;4990197;28;20069;-73
2021/06/16 11:12:38;;;;;;;18.15;4.40;;;;;11.70;101500.00;;;;4990306;28;20037;-73
2021/06/16 11:15:07;;;;;;;12.60;3.17;;;;;11.90;101509.00;;;;4990463;28;20090;-73
2021/06/16 11:17:33;;;;;;;26.67;4.50;;;;;11.90;101522.00;;;;4990455;28;20073;-74
2021/06/16 11:20:03;;;;;;;35.17;5.07;;;;;12.40;101481.00;;;;5005826;28;20036;-72
2021/06/16 11:22:29;;;;;;;24.45;4.50;;;;;12.50;101482.00;;;;4990379;28;20445;-73
2021/06/16 11:25:09;;;;;;;11.45;2.67;;;;;13.20;101484.00;;;;4990372;28;20105;-72
2021/06/16 11:27:51;;;;;;;12.27;2.88;;;;;14.10;101437.00;;;;4990009;28;20065;-73
2021/06/16 11:30:39;;;;;;;17.02;3.88;;;;;15.90;101415.00;;;;4989695;28;20050;-73
2021/06/16 11:33:23;;;;;;;12.25;4.05;;;;;16.60;101381.00;;;;4989325;28;20821;-73
2021/06/16 11:35:50;;;;;;;19.30;3.50;;;;;16.60;101383.00;;;;4989881;28;20034;-72
2021/06/16 11:38:20;;;;;;;32.35;5.53;;;;;17.10;101377.00;;;;4989886;28;20039;-73
2021/06/16 11:41:20;;;;;;;11.05;3.83;;;;;17.60;101411.00;;;;4989631;28;20441;-73
2021/06/16 11:44:19;;;;;;;15.48;4.25;;;;;17.50;101401.00;;;;4990117;28;20550;-73
2021/06/16 11:46:47;;;;;;;14.85;3.67;;;;;17.70;101382.00;;;;4988789;28;20386;-73
2021/06/16 11:49:24;;;;;;;11.65;4.50;;;;;18.10;101387.00;;;;4990077;28;20030;-72
2021/06/16 11:51:59;;;;;;;14.82;5.63;;;;;18.50;101406.00;;;;4989729;28;20121;-73
2021/06/16 11:54:28;;;;;;;9.88;3.42;;;;;17.20;101546.00;;;;4989668;28;20065;-73
2021/06/16 11:57:09;;;;;;;15.52;3.92;;;;;16.30;101450.00;;;;4994063;28;20437;-73
2021/06/16 11:59:44;;;;;;;29.65;7.90;;;;;17.50;101448.00;;;;4993902;28;20041;-72
2021/06/16 12:02:18;;;;;;;15.38;3.88;;;;;18.10;101460.00;;;;4990146;28;20030;-71
2021/06/16 12:04:53;;;;;;;8.25;3.08;;;;;17.40;101555.00;;;;4989280;28;20057;-72
2021/06/16 12:07:34;;;;;;;10.35;3.28;;;;;15.40;101562.00;;;;4989358;28;20026;-72
2021/06/16 12:10:05;;;;;;;10.10;2.70;;;;;14.10;101580.00;;;;4989769;28;20120;-71
2021/06/16 12:12:53;;;;;;;8.15;2.80;;;;;12.90;101612.00;;;;4989975;28;20121;-72
2021/06/16 12:15:31;;;;;;;12.30;3.28;;;;;12.00;101619.00;;;;4989248;28;20046;-72
2021/06/16 12:18:06;;;;;;;9.20;2.97;;;;;11.80;101596.00;;;;4989151;28;20114;-73
2021/06/16 12:20:37;;;;;;;8.80;3.28;;;;;12.00;101600.00;;;;4989493;28;20156;-71